Share

Milnor, ND (58060)

Gwinner-melroe (KGWR) Elev 1266 ft | 46.22 °N, 97.64 °W | Change Station

Current weather conditions updated 1 minute ago

Clear
Clear
23 °F
Feels Like 13 °F
N
9
Wind Variable Wind from North
Sunrise 6:39 AM
Sunset 8:19 PM
Moon Waning Gibbous

Today is forecast to be Much Warmer than yesterday.

Pressure 30.28 in
Visibility 10.0 miles
Clouds Clear
Windchill 13 °F
Dew Point 19 °F
Humidity 86%
Rainfall 0.00 in
Snow Depth Not available.
UV 0 out of 16
Pollen 2.90 out of 12
Air Quality Not available.
Flu Activity Sporadic
METAR KGWR 171015Z AUTO 35008KT 10SM CLR M05/M07 A3028 RMK A01 P000

More Conditions Fewer Conditions

Pressure 30.28 in
Visibility 10.0 miles
Clouds Clear
Windchill 13 °F
Dew Point 19 °F
Humidity 86%
Rainfall 0.00 in
Snow Depth Not available.
UV 0 out of 16
Pollen 2.90 out of 12
Air Quality Not available.
Flu Activity Sporadic
METAR KGWR 171015Z AUTO 35008KT 10SM CLR M05/M07 A3028 RMK A01 P000

More Conditions Fewer Conditions

10-Day Forecast

Almanac

Astronomy

Apr. 17, 2014 Rise Set
Actual Time 6:39 AM CDT 8:19 PM CDT
Civil Twilight 6:07 AM CDT 8:51 PM CDT
Nautical Twilight 5:29 AM CDT 9:30 PM CDT
Astronomical Twilight 4:47 AM CDT 10:12 PM CDT
Moon 11:14 PM CDT 8:06 AM CDT
Length of Visible Light 14h 43m
Length of Day
13h 40m
Tomorrow will be 3m 7s longer.
Waning Gibbous, 95% of the Moon is Illuminated
Today
Waning Gibbous
Apr 22
Last Quarter
Apr 29
New
May 6
First Quarter
May 14
Full

Today's Extremes

State Highs State Lows

Community

  • Sunset over the Bay
    Sunset over the Bay
  • symphony in blue....
    symphony in blue....
  • Dawn Surprise
    Dawn Surprise
  • Yucca delight
    Yucca delight
  • Sunset inside of the Ocean
    Sunset inside of the Ocean

WunderPhotos

Upload Photos

1,701,899 photos uploaded!

WunderBlogs® & News

Nearby

Snow Depth

Station Depth Elevation
No new snow has been reported.

Coastal Water Temperatures

Place Temperature
No Stations Reporting

Earthquake Activity

City Distance Mag. Time & Date
No recent earthquake activity has been reported nearby.
Minimum magnitude displayed is 2.5.

Nearby Weather Stations

There are no personal weather stations in this area.

What do you think?

We're not finished. Please let us know what you like, what you don't like, and what you are still missing.